createdAt,value
2022-10-31T00:00:45.366Z,100.00
2022-10-31T00:01:37.305Z,100.00
2022-10-31T00:02:10.277Z,100.00
2022-10-31T00:02:44.131Z,100.00
2022-10-31T00:03:19.287Z,100.00
2022-10-31T00:03:53.526Z,100.00
2022-10-31T00:04:26.913Z,100.00
2022-10-31T00:04:59.856Z,100.00
2022-10-31T00:05:32.915Z,100.00
2022-10-31T00:06:05.879Z,100.00
2022-10-31T00:06:38.978Z,100.00
2022-10-31T00:07:11.562Z,100.00
2022-10-31T00:07:44.160Z,100.00
2022-10-31T00:08:18.291Z,100.00
2022-10-31T00:08:56.037Z,100.00
2022-10-31T00:09:28.629Z,100.00
2022-10-31T00:10:00.762Z,100.00
2022-10-31T00:10:33.051Z,100.00
2022-10-31T00:11:05.098Z,100.00
2022-10-31T00:11:37.299Z,100.00
2022-10-31T00:12:09.780Z,100.00
2022-10-31T00:12:42.100Z,100.00
2022-10-31T00:13:15.332Z,100.00
2022-10-31T00:13:47.448Z,100.00
2022-10-31T00:14:19.620Z,100.00
2022-10-31T00:14:54.438Z,100.00
2022-10-31T00:15:29.988Z,100.00
2022-10-31T00:16:05.418Z,100.00
2022-10-31T00:16:40.488Z,100.00
2022-10-31T00:17:21.063Z,100.00
2022-10-31T00:17:54.916Z,100.00
2022-10-31T00:18:27.803Z,100.00
2022-10-31T00:19:03.152Z,100.00
2022-10-31T00:19:36.337Z,100.00
2022-10-31T00:20:09.844Z,100.00
2022-10-31T00:20:42.628Z,100.00
2022-10-31T00:21:16.320Z,100.00
2022-10-31T00:21:48.846Z,100.00
2022-10-31T00:22:21.278Z,100.00
2022-10-31T00:22:53.831Z,100.00
2022-10-31T00:23:26.117Z,100.00
2022-10-31T00:23:59.885Z,100.00
2022-10-31T00:24:32.197Z,100.00
2022-10-31T00:25:07.740Z,100.00
2022-10-31T00:25:40.907Z,100.00
2022-10-31T00:26:13.893Z,100.00
2022-10-31T00:26:46.598Z,100.00
2022-10-31T00:27:19.980Z,100.00
2022-10-31T00:27:53.202Z,100.00
2022-10-31T00:28:29.689Z,100.00
2022-10-31T00:29:03.575Z,100.00
2022-10-31T00:29:37.825Z,100.00
2022-10-31T00:30:11.512Z,100.00
2022-10-31T00:30:44.784Z,100.00
2022-10-31T00:31:20.228Z,100.00
2022-10-31T00:31:56.412Z,100.00
2022-10-31T00:32:31.742Z,100.00
2022-10-31T00:33:06.917Z,100.00
2022-10-31T00:33:41.584Z,100.00
2022-10-31T00:34:17.966Z,100.00
2022-10-31T00:34:52.265Z,100.00
2022-10-31T00:35:25.261Z,100.00
2022-10-31T00:36:00.488Z,100.00
2022-10-31T00:36:33.720Z,100.00
2022-10-31T00:37:06.826Z,100.00
2022-10-31T00:37:42.107Z,100.00
2022-10-31T00:38:14.813Z,100.00
2022-10-31T00:38:49.393Z,100.00
2022-10-31T00:39:25.706Z,100.00
2022-10-31T00:40:00.739Z,100.00
2022-10-31T00:40:34.059Z,100.00
2022-10-31T00:41:11.206Z,100.00
2022-10-31T00:41:47.139Z,100.00
2022-10-31T00:42:19.802Z,100.00
2022-10-31T00:42:52.626Z,100.00
2022-10-31T00:43:25.987Z,100.00
2022-10-31T00:43:58.578Z,100.00
2022-10-31T00:44:31.522Z,100.00
2022-10-31T00:45:04.471Z,100.00
2022-10-31T00:49:52.562Z,100.00
2022-10-31T00:50:25.729Z,100.00
2022-10-31T00:50:57.812Z,100.00
2022-10-31T00:51:29.857Z,100.00
2022-10-31T00:52:04.038Z,100.00
2022-10-31T00:52:36.565Z,100.00
2022-10-31T00:53:08.930Z,100.00
2022-10-31T00:53:41.152Z,100.00
2022-10-31T00:54:13.910Z,100.00
2022-10-31T00:54:46.079Z,100.00
2022-10-31T00:55:18.062Z,100.00
2022-10-31T00:55:50.250Z,100.00
2022-10-31T00:56:22.621Z,100.00
2022-10-31T00:56:54.546Z,100.00
2022-10-31T00:57:26.629Z,100.00
2022-10-31T00:58:02.575Z,100.00
2022-10-31T00:58:34.757Z,100.00
2022-10-31T00:59:07.458Z,100.00
2022-10-31T00:59:39.563Z,100.00
2022-10-31T01:00:12.126Z,100.00
2022-10-31T01:00:46.800Z,100.00
2022-10-31T01:01:22.047Z,100.00
2022-10-31T01:01:55.367Z,100.00
2022-10-31T01:02:28.087Z,100.00
2022-10-31T01:03:00.672Z,100.00
2022-10-31T01:03:34.392Z,100.00
2022-10-31T01:04:06.467Z,100.00
2022-10-31T01:04:38.474Z,100.00
2022-10-31T01:05:10.690Z,100.00
2022-10-31T01:05:43.145Z,100.00
2022-10-31T01:06:15.484Z,100.00
2022-10-31T01:06:47.836Z,100.00
2022-10-31T01:07:22.134Z,100.00
2022-10-31T01:07:54.370Z,100.00
2022-10-31T01:08:26.901Z,100.00
2022-10-31T01:08:59.565Z,100.00
2022-10-31T01:09:32.020Z,100.00
2022-10-31T01:10:06.299Z,100.00
2022-10-31T01:10:38.431Z,100.00
2022-10-31T01:11:19.399Z,100.00
2022-10-31T01:11:51.813Z,100.00
2022-10-31T01:12:24.213Z,100.00
2022-10-31T01:12:57.065Z,100.00
2022-10-31T01:13:29.549Z,100.00
2022-10-31T01:14:02.002Z,100.00
2022-10-31T01:14:37.453Z,100.00
2022-10-31T01:15:11.435Z,100.00
2022-10-31T01:15:46.491Z,100.00
2022-10-31T01:16:23.015Z,100.00
2022-10-31T01:16:55.719Z,100.00
2022-10-31T01:17:28.153Z,100.00
2022-10-31T01:18:00.738Z,100.00
2022-10-31T01:18:36.136Z,100.00
2022-10-31T01:19:08.268Z,100.00
2022-10-31T01:19:40.420Z,100.00
2022-10-31T01:20:14.141Z,100.00
2022-10-31T01:20:46.322Z,100.00
2022-10-31T01:21:21.232Z,100.00
2022-10-31T01:21:56.421Z,100.00
2022-10-31T01:22:28.372Z,100.00
2022-10-31T01:23:00.175Z,100.00
2022-10-31T01:23:33.181Z,100.00
2022-10-31T01:24:05.792Z,100.00
2022-10-31T01:24:37.631Z,100.00
2022-10-31T01:25:10.289Z,100.00
2022-10-31T01:25:43.622Z,100.00
2022-10-31T01:26:18.635Z,100.00
2022-10-31T01:26:50.902Z,100.00
2022-10-31T01:27:23.057Z,100.00
2022-10-31T01:27:55.031Z,100.00
2022-10-31T01:28:27.140Z,100.00
2022-10-31T01:29:03.080Z,100.00
2022-10-31T01:29:35.322Z,100.00
2022-10-31T01:30:07.633Z,100.00
2022-10-31T01:30:39.852Z,100.00
2022-10-31T01:31:11.915Z,100.00
2022-10-31T01:31:44.258Z,100.00
2022-10-31T01:32:19.390Z,100.00
2022-10-31T01:32:51.440Z,100.00
2022-10-31T01:33:23.519Z,100.00
2022-10-31T01:33:55.746Z,100.00
2022-10-31T01:34:28.085Z,100.00
2022-10-31T01:35:00.543Z,100.00
2022-10-31T01:35:33.034Z,100.00
2022-10-31T01:36:22.242Z,100.00
2022-10-31T01:36:56.289Z,100.00
2022-10-31T01:37:31.320Z,100.00
2022-10-31T01:38:03.271Z,100.00
2022-10-31T01:38:35.112Z,100.00
2022-10-31T01:39:16.407Z,100.00
2022-10-31T01:39:49.732Z,100.00
2022-10-31T01:40:21.585Z,100.00
2022-10-31T01:40:54.008Z,100.00
2022-10-31T01:41:29.067Z,100.00
2022-10-31T01:42:01.078Z,100.00
2022-10-31T01:42:33.739Z,100.00
2022-10-31T01:43:06.113Z,100.00
2022-10-31T01:44:16.098Z,100.00
2022-10-31T01:44:56.043Z,100.00
2022-10-31T01:45:28.277Z,100.00
2022-10-31T01:46:00.299Z,100.00
2022-10-31T01:46:38.097Z,100.00
2022-10-31T01:47:19.107Z,100.00
2022-10-31T01:47:50.785Z,100.00
2022-10-31T01:51:45.147Z,100.00
2022-10-31T01:52:24.439Z,100.00
2022-10-31T01:52:56.517Z,100.00
2022-10-31T01:53:28.398Z,100.00
2022-10-31T01:54:04.746Z,100.00
2022-10-31T01:54:41.393Z,100.00
2022-10-31T01:55:31.505Z,100.00
2022-10-31T01:56:03.697Z,100.00
2022-10-31T01:56:38.748Z,100.00
2022-10-31T01:57:14.017Z,100.00
2022-10-31T01:57:48.278Z,100.00
2022-10-31T02:01:46.279Z,100.00
2022-10-31T02:02:19.091Z,100.00
2022-10-31T02:02:51.740Z,100.00
2022-10-31T02:03:24.453Z,100.00
2022-10-31T02:03:56.864Z,100.00
2022-10-31T02:04:30.552Z,100.00
2022-10-31T02:05:06.852Z,100.00
2022-10-31T02:05:38.963Z,100.00
2022-10-31T02:06:28.988Z,100.00
2022-10-31T02:07:06.534Z,100.00
2022-10-31T02:07:42.804Z,100.00
2022-10-31T02:08:22.391Z,100.00
2022-10-31T02:08:56.691Z,100.00
2022-10-31T02:09:30.515Z,100.00
2022-10-31T02:10:03.657Z,100.00
2022-10-31T02:10:37.853Z,100.00
2022-10-31T02:11:10.627Z,100.00
2022-10-31T02:11:44.083Z,100.00
2022-10-31T02:12:20.276Z,100.00
2022-10-31T02:12:54.421Z,100.00
2022-10-31T02:14:00.459Z,100.00
2022-10-31T02:14:32.882Z,100.00
2022-10-31T02:15:05.628Z,100.00
2022-10-31T02:15:38.860Z,100.00
2022-10-31T02:16:10.963Z,100.00
2022-10-31T02:16:43.831Z,100.00
2022-10-31T02:18:16.083Z,100.00
2022-10-31T02:18:48.688Z,100.00
2022-10-31T02:19:46.055Z,100.00
2022-10-31T02:20:23.668Z,100.00
2022-10-31T02:21:07.746Z,100.00
2022-10-31T02:21:50.796Z,100.00
2022-10-31T02:22:31.603Z,100.00
2022-10-31T02:23:20.583Z,100.00
2022-10-31T02:24:10.687Z,100.00
2022-10-31T02:24:48.082Z,100.00
2022-10-31T02:25:48.107Z,100.00
2022-10-31T02:26:59.686Z,100.00
2022-10-31T02:27:48.361Z,100.00
2022-10-31T02:28:40.399Z,100.00
2022-10-31T02:29:20.617Z,100.00
2022-10-31T02:30:06.333Z,100.00
2022-10-31T02:30:46.687Z,100.00
2022-10-31T02:31:18.573Z,100.00
2022-10-31T02:32:10.817Z,100.00
2022-10-31T02:32:54.168Z,100.00
2022-10-31T02:33:37.148Z,100.00
2022-10-31T02:34:20.733Z,100.00
2022-10-31T02:35:13.084Z,100.00
2022-10-31T02:36:08.760Z,100.00
2022-10-31T02:36:49.844Z,100.00
2022-10-31T02:37:38.641Z,100.00
2022-10-31T02:38:31.560Z,100.00
2022-10-31T02:39:22.719Z,100.00
2022-10-31T02:39:56.292Z,100.00
2022-10-31T02:40:58.043Z,100.00
2022-10-31T02:41:55.979Z,100.00
2022-10-31T02:42:34.866Z,100.00
2022-10-31T02:44:03.745Z,100.00
2022-10-31T02:45:01.528Z,100.00
2022-10-31T02:45:48.151Z,100.00
2022-10-31T02:46:28.102Z,100.00
2022-10-31T02:47:02.852Z,100.00
2022-10-31T02:47:42.769Z,100.00
2022-10-31T02:48:20.227Z,100.00
2022-10-31T02:48:54.456Z,100.00
2022-10-31T02:49:49.528Z,100.00
2022-10-31T02:50:28.197Z,100.00
2022-10-31T02:51:02.439Z,100.00
2022-10-31T02:51:34.660Z,100.00
2022-10-31T02:56:26.375Z,100.00
2022-10-31T02:57:05.354Z,100.00
2022-10-31T02:57:37.473Z,100.00
2022-10-31T02:58:12.946Z,100.00
2022-10-31T03:03:20.949Z,100.00
2022-10-31T03:04:14.595Z,100.00
2022-10-31T03:05:18.601Z,100.00
2022-10-31T03:06:02.121Z,100.00
2022-10-31T03:06:36.587Z,100.00
2022-10-31T03:07:26.030Z,100.00
2022-10-31T03:08:24.632Z,100.00
2022-10-31T03:09:20.982Z,100.00
2022-10-31T03:10:10.816Z,100.00
2022-10-31T03:10:48.437Z,100.00
2022-10-31T03:11:25.217Z,100.00
2022-10-31T03:12:07.787Z,100.00
2022-10-31T03:12:51.187Z,100.00
2022-10-31T03:13:25.448Z,100.00
2022-10-31T03:14:11.369Z,100.00
2022-10-31T03:14:54.995Z,100.00
2022-10-31T03:15:31.375Z,100.00
2022-10-31T03:16:11.238Z,100.00
2022-10-31T03:16:48.712Z,100.00
2022-10-31T03:17:29.419Z,100.00
2022-10-31T03:18:14.188Z,100.00
2022-10-31T03:19:09.406Z,100.00
2022-10-31T03:19:43.453Z,100.00
2022-10-31T03:20:18.217Z,100.00
2022-10-31T03:20:55.746Z,100.00
2022-10-31T03:21:31.614Z,100.00
2022-10-31T03:22:19.326Z,100.00
2022-10-31T03:22:51.456Z,100.00
2022-10-31T03:23:24.082Z,100.00
2022-10-31T03:23:57.849Z,100.00
2022-10-31T03:24:33.180Z,100.00
2022-10-31T03:25:05.951Z,100.00
2022-10-31T03:25:38.946Z,100.00
2022-10-31T03:26:12.601Z,100.00
2022-10-31T03:26:48.027Z,100.00
2022-10-31T03:27:22.956Z,100.00
2022-10-31T03:27:54.913Z,100.00
2022-10-31T03:28:30.651Z,100.00
2022-10-31T03:29:07.832Z,100.00
2022-10-31T03:29:44.892Z,100.00
2022-10-31T03:30:18.039Z,100.00
2022-10-31T03:31:03.528Z,100.00
2022-10-31T03:31:49.070Z,100.00
2022-10-31T03:32:27.242Z,100.00
2022-10-31T03:33:01.158Z,100.00
2022-10-31T03:33:36.385Z,100.00
2022-10-31T03:34:08.812Z,100.00
2022-10-31T03:34:42.755Z,100.00
2022-10-31T03:35:16.957Z,100.00
2022-10-31T03:35:50.440Z,100.00
2022-10-31T03:36:23.384Z,100.00
2022-10-31T03:36:58.622Z,100.00
2022-10-31T03:37:33.067Z,100.00
2022-10-31T03:38:05.532Z,100.00
2022-10-31T03:38:40.569Z,100.00
2022-10-31T03:39:15.192Z,100.00
2022-10-31T03:39:49.665Z,100.00
2022-10-31T03:40:22.934Z,100.00
2022-10-31T03:40:55.640Z,100.00
2022-10-31T03:41:29.935Z,100.00
2022-10-31T03:42:06.612Z,100.00
2022-10-31T03:42:42.717Z,100.00
2022-10-31T03:43:18.108Z,100.00
2022-10-31T03:44:05.382Z,100.00
2022-10-31T03:44:39.162Z,100.00
2022-10-31T03:45:28.012Z,100.00
2022-10-31T03:46:00.055Z,100.00
2022-10-31T03:46:33.073Z,100.00
2022-10-31T03:47:05.466Z,100.00
2022-10-31T03:47:38.302Z,100.00
2022-10-31T03:48:10.265Z,100.00
2022-10-31T03:48:41.893Z,100.00
2022-10-31T03:49:13.973Z,100.00
2022-10-31T03:49:45.576Z,100.00
2022-10-31T03:50:17.577Z,100.00
2022-10-31T03:51:06.611Z,100.00
2022-10-31T03:51:46.751Z,100.00
2022-10-31T03:52:26.986Z,100.00
2022-10-31T03:53:06.313Z,100.00
2022-10-31T03:53:46.958Z,100.00
2022-10-31T03:54:40.928Z,100.00
2022-10-31T03:55:15.331Z,100.00
2022-10-31T03:55:53.886Z,100.00
2022-10-31T03:56:37.786Z,100.00
2022-10-31T03:57:19.225Z,100.00
2022-10-31T03:58:12.741Z,100.00
2022-10-31T03:58:48.955Z,100.00
2022-10-31T03:59:35.427Z,100.00
2022-10-31T04:00:09.423Z,100.00
2022-10-31T04:00:52.212Z,100.00
2022-10-31T04:01:25.090Z,100.00
2022-10-31T04:01:59.914Z,100.00
2022-10-31T04:02:33.823Z,100.00
2022-10-31T04:03:12.985Z,100.00
2022-10-31T04:03:47.279Z,100.00
2022-10-31T04:04:19.974Z,100.00
2022-10-31T04:04:54.145Z,100.00
2022-10-31T04:05:25.854Z,100.00
2022-10-31T04:06:03.608Z,100.00
2022-10-31T04:06:37.236Z,100.00
2022-10-31T04:07:10.441Z,100.00
2022-10-31T04:07:46.329Z,100.00
2022-10-31T04:08:21.480Z,100.00
2022-10-31T04:08:57.234Z,100.00
2022-10-31T04:09:30.892Z,100.00
2022-10-31T04:10:05.983Z,100.00
2022-10-31T04:10:39.915Z,100.00
2022-10-31T04:11:14.029Z,100.00
2022-10-31T04:11:50.753Z,100.00
2022-10-31T04:12:46.565Z,100.00
2022-10-31T04:13:30.347Z,100.00
2022-10-31T04:14:13.360Z,100.00
2022-10-31T04:14:47.624Z,100.00
2022-10-31T04:15:20.576Z,100.00
2022-10-31T04:15:53.425Z,100.00
2022-10-31T04:16:27.896Z,100.00
2022-10-31T04:17:00.571Z,100.00
2022-10-31T04:17:41.928Z,100.00
2022-10-31T04:18:13.715Z,100.00
2022-10-31T04:18:46.090Z,100.00
2022-10-31T04:19:17.649Z,100.00
2022-10-31T04:19:49.227Z,100.00
2022-10-31T04:20:31.015Z,100.00
2022-10-31T04:21:07.866Z,100.00
2022-10-31T04:21:39.492Z,100.00
2022-10-31T04:22:11.044Z,100.00
2022-10-31T04:22:43.054Z,100.00
2022-10-31T04:23:21.428Z,100.00
2022-10-31T04:23:54.113Z,100.00
2022-10-31T04:24:30.078Z,100.00
2022-10-31T04:25:01.830Z,100.00
2022-10-31T04:25:33.318Z,100.00
2022-10-31T04:26:05.962Z,100.00
2022-10-31T04:26:37.914Z,100.00
2022-10-31T04:27:09.513Z,100.00
2022-10-31T04:27:41.070Z,100.00
2022-10-31T04:28:14.152Z,100.00
2022-10-31T04:28:45.735Z,100.00
2022-10-31T04:29:18.141Z,100.00
2022-10-31T04:29:50.938Z,100.00
2022-10-31T04:30:23.997Z,100.00
2022-10-31T04:30:55.688Z,100.00
2022-10-31T04:31:28.105Z,100.00
2022-10-31T04:31:59.690Z,100.00
2022-10-31T04:32:31.178Z,100.00
2022-10-31T04:33:02.883Z,100.00
2022-10-31T04:33:34.909Z,100.00
2022-10-31T04:34:08.382Z,100.00
2022-10-31T04:34:40.819Z,100.00
2022-10-31T04:35:12.328Z,100.00
2022-10-31T04:36:09.917Z,100.00
2022-10-31T04:36:42.377Z,100.00
2022-10-31T04:37:14.096Z,100.00
2022-10-31T04:37:45.655Z,100.00
2022-10-31T04:38:18.127Z,100.00
2022-10-31T04:38:49.726Z,100.00
2022-10-31T04:39:35.716Z,100.00
2022-10-31T04:40:25.636Z,100.00
2022-10-31T04:41:12.033Z,100.00
2022-10-31T04:41:54.423Z,100.00
2022-10-31T04:42:25.970Z,100.00
2022-10-31T04:42:58.174Z,100.00
2022-10-31T04:43:30.212Z,100.00
2022-10-31T04:44:01.832Z,100.00
2022-10-31T04:44:33.379Z,100.00
2022-10-31T04:45:06.884Z,100.00
2022-10-31T04:45:39.838Z,100.00
2022-10-31T04:46:11.564Z,100.00
2022-10-31T04:46:43.266Z,100.00
2022-10-31T04:47:15.539Z,100.00
2022-10-31T04:47:48.080Z,100.00
2022-10-31T04:48:20.198Z,100.00
2022-10-31T04:48:51.815Z,100.00
2022-10-31T04:49:23.392Z,100.00
2022-10-31T04:49:55.046Z,100.00
2022-10-31T04:50:26.712Z,100.00
2022-10-31T04:51:00.948Z,100.00
2022-10-31T04:51:32.689Z,100.00
2022-10-31T04:52:05.678Z,100.00
2022-10-31T04:52:41.851Z,100.00
2022-10-31T04:53:14.858Z,100.00
2022-10-31T04:54:09.559Z,100.00
2022-10-31T04:55:01.065Z,100.00
2022-10-31T04:55:50.977Z,100.00
2022-10-31T04:56:25.466Z,100.00
2022-10-31T04:57:02.375Z,100.00
2022-10-31T04:57:44.737Z,100.00
2022-10-31T04:58:53.818Z,100.00
2022-10-31T04:59:25.717Z,100.00
2022-10-31T04:59:58.918Z,100.00
2022-10-31T05:00:30.843Z,100.00
2022-10-31T05:01:02.514Z,100.00
2022-10-31T05:01:34.376Z,100.00
2022-10-31T05:02:06.661Z,100.00
2022-10-31T05:02:59.093Z,100.00
2022-10-31T05:03:32.507Z,100.00
2022-10-31T05:04:04.195Z,100.00
2022-10-31T05:04:36.171Z,100.00
2022-10-31T05:05:08.147Z,100.00
2022-10-31T05:05:40.308Z,100.00
2022-10-31T05:06:12.140Z,100.00
2022-10-31T05:06:46.587Z,100.00
2022-10-31T05:07:19.065Z,100.00
2022-10-31T05:07:51.971Z,100.00
2022-10-31T05:08:25.170Z,100.00
2022-10-31T05:08:57.948Z,100.00
2022-10-31T05:09:29.751Z,100.00
2022-10-31T05:10:01.287Z,100.00
2022-10-31T05:10:34.326Z,100.00
2022-10-31T05:11:06.672Z,100.00
2022-10-31T05:11:38.927Z,100.00
2022-10-31T05:12:28.861Z,100.00
2022-10-31T05:13:26.417Z,100.00
2022-10-31T05:14:20.601Z,100.00
2022-10-31T05:15:22.696Z,100.00
2022-10-31T05:16:12.705Z,100.00
2022-10-31T05:17:10.003Z,100.00
2022-10-31T05:18:00.598Z,100.00
2022-10-31T05:19:04.266Z,100.00
2022-10-31T05:19:42.103Z,100.00
2022-10-31T05:20:32.676Z,100.00
2022-10-31T05:21:22.501Z,100.00
2022-10-31T05:21:57.308Z,100.00
2022-10-31T05:22:29.004Z,100.00
2022-10-31T05:23:00.840Z,100.00
2022-10-31T05:23:32.725Z,100.00
2022-10-31T05:24:05.077Z,100.00
2022-10-31T05:24:38.706Z,100.00
2022-10-31T05:25:10.256Z,100.00
2022-10-31T05:25:42.218Z,100.00
2022-10-31T05:26:13.776Z,100.00
2022-10-31T05:26:45.820Z,100.00
2022-10-31T05:27:18.891Z,100.00
2022-10-31T05:27:52.139Z,100.00
2022-10-31T05:28:24.221Z,100.00
2022-10-31T05:28:56.203Z,100.00
2022-10-31T05:29:28.462Z,100.00
2022-10-31T05:30:32.742Z,100.00
2022-10-31T05:31:04.874Z,100.00
2022-10-31T05:31:37.171Z,100.00
2022-10-31T05:32:10.720Z,100.00
2022-10-31T05:33:17.414Z,100.00
2022-10-31T05:34:07.454Z,100.00
2022-10-31T05:34:50.797Z,100.00
2022-10-31T05:35:54.488Z,100.00
2022-10-31T05:36:58.280Z,100.00
2022-10-31T05:37:30.229Z,100.00
2022-10-31T05:38:02.279Z,100.00
2022-10-31T05:38:33.853Z,100.00
2022-10-31T05:39:46.816Z,100.00
2022-10-31T05:40:22.216Z,100.00
2022-10-31T05:41:03.718Z,100.00
2022-10-31T05:41:37.885Z,100.00
2022-10-31T05:42:14.097Z,100.00
2022-10-31T05:42:46.312Z,100.00
2022-10-31T05:43:18.460Z,100.00
2022-10-31T05:43:50.170Z,100.00
2022-10-31T05:44:49.420Z,100.00
2022-10-31T05:45:39.212Z,100.00
2022-10-31T05:46:16.568Z,100.00
2022-10-31T05:47:33.280Z,100.00
2022-10-31T05:48:23.327Z,100.00
2022-10-31T05:49:13.644Z,100.00
2022-10-31T05:50:04.111Z,100.00
2022-10-31T05:50:38.537Z,100.00
2022-10-31T05:51:18.853Z,100.00
2022-10-31T05:51:50.447Z,100.00
2022-10-31T05:52:22.754Z,100.00
2022-10-31T05:53:03.573Z,100.00
2022-10-31T05:53:39.824Z,100.00
2022-10-31T05:54:15.678Z,100.00
2022-10-31T05:54:49.849Z,100.00
2022-10-31T05:55:21.585Z,100.00
2022-10-31T05:56:14.064Z,100.00
2022-10-31T05:56:45.641Z,100.00
2022-10-31T05:57:18.078Z,100.00
2022-10-31T05:57:49.659Z,100.00
2022-10-31T05:58:21.895Z,100.00
2022-10-31T05:58:59.292Z,100.00
2022-10-31T05:59:32.074Z,100.00
2022-10-31T06:00:05.078Z,100.00
2022-10-31T06:00:39.939Z,100.00
2022-10-31T06:01:14.217Z,100.00
2022-10-31T06:01:45.881Z,100.00
2022-10-31T06:02:36.212Z,100.00
2022-10-31T06:03:34.293Z,100.00
2022-10-31T06:04:08.460Z,100.00
2022-10-31T06:04:41.879Z,100.00
2022-10-31T06:05:14.124Z,100.00
2022-10-31T06:05:50.632Z,100.00
2022-10-31T06:06:25.904Z,100.00
2022-10-31T06:06:57.944Z,100.00
2022-10-31T06:07:35.156Z,100.00
2022-10-31T06:08:06.775Z,100.00
2022-10-31T06:08:38.712Z,100.00
2022-10-31T06:09:13.567Z,100.00
2022-10-31T06:09:45.173Z,100.00
2022-10-31T06:10:16.930Z,100.00
2022-10-31T06:10:50.597Z,100.00
2022-10-31T06:11:28.280Z,100.00
2022-10-31T06:12:09.232Z,100.00
2022-10-31T06:13:07.596Z,100.00
2022-10-31T06:13:45.164Z,100.00
2022-10-31T06:14:23.360Z,100.00
2022-10-31T06:14:58.619Z,100.00
2022-10-31T06:15:30.284Z,100.00
2022-10-31T06:16:03.195Z,100.00
2022-10-31T06:16:40.722Z,100.00
2022-10-31T06:17:38.260Z,100.00
2022-10-31T06:18:41.955Z,100.00
2022-10-31T06:19:14.799Z,100.00
2022-10-31T06:19:46.445Z,100.00
2022-10-31T06:20:22.398Z,100.00
2022-10-31T06:21:02.356Z,100.00
2022-10-31T06:21:33.926Z,100.00
2022-10-31T06:22:05.760Z,100.00
2022-10-31T06:22:38.267Z,100.00
2022-10-31T06:23:10.543Z,100.00
2022-10-31T06:23:42.933Z,100.00
2022-10-31T06:24:30.508Z,100.00
2022-10-31T06:25:09.699Z,100.00
2022-10-31T06:25:44.159Z,100.00
2022-10-31T06:26:17.347Z,100.00
2022-10-31T06:26:48.970Z,100.00
2022-10-31T06:27:20.992Z,100.00
2022-10-31T06:27:52.598Z,100.00
2022-10-31T06:28:27.538Z,100.00
2022-10-31T06:29:05.581Z,100.00
2022-10-31T06:29:54.929Z,100.00
2022-10-31T06:30:36.293Z,100.00
2022-10-31T06:31:08.528Z,100.00
2022-10-31T06:31:40.924Z,100.00
2022-10-31T06:32:13.306Z,100.00
2022-10-31T06:32:48.004Z,100.00
2022-10-31T06:33:19.892Z,100.00
2022-10-31T06:34:02.755Z,100.00
2022-10-31T06:34:34.340Z,100.00
2022-10-31T06:35:06.358Z,100.00
2022-10-31T06:35:39.575Z,100.00
2022-10-31T06:36:11.337Z,100.00
2022-10-31T06:36:43.042Z,100.00
2022-10-31T06:37:15.418Z,100.00
2022-10-31T06:37:54.131Z,100.00
2022-10-31T06:38:36.150Z,100.00
2022-10-31T06:39:11.204Z,100.00
2022-10-31T06:39:42.886Z,100.00
2022-10-31T06:40:16.483Z,100.00
2022-10-31T06:41:08.145Z,100.00
2022-10-31T06:41:48.913Z,100.00
2022-10-31T06:42:21.866Z,100.00
2022-10-31T06:43:02.413Z,100.00
2022-10-31T06:43:35.752Z,100.00
2022-10-31T06:44:30.138Z,100.00
2022-10-31T06:45:04.479Z,100.00
2022-10-31T06:45:36.067Z,100.00
2022-10-31T06:46:22.384Z,100.00
2022-10-31T06:47:07.350Z,100.00
2022-10-31T06:48:17.273Z,100.00
2022-10-31T06:49:19.728Z,100.00
2022-10-31T06:50:04.795Z,100.00
2022-10-31T06:50:37.186Z,100.00
2022-10-31T06:51:08.954Z,100.00
2022-10-31T06:51:40.513Z,100.00
2022-10-31T06:52:12.565Z,100.00
2022-10-31T06:52:44.195Z,100.00
2022-10-31T06:53:16.559Z,100.00
2022-10-31T06:53:48.175Z,100.00
2022-10-31T06:54:22.439Z,100.00
2022-10-31T06:54:54.007Z,100.00
2022-10-31T06:55:28.090Z,100.00
2022-10-31T06:56:00.393Z,100.00
2022-10-31T06:56:32.046Z,100.00
2022-10-31T06:57:04.622Z,100.00
2022-10-31T06:57:37.073Z,100.00
2022-10-31T06:58:10.418Z,100.00
2022-10-31T06:58:44.049Z,100.00
2022-10-31T06:59:16.934Z,100.00
2022-10-31T07:00:11.506Z,100.00
2022-10-31T07:00:48.205Z,100.00
2022-10-31T07:01:19.956Z,100.00
2022-10-31T07:01:52.854Z,100.00
2022-10-31T07:02:24.590Z,100.00
2022-10-31T07:02:58.314Z,100.00
2022-10-31T07:03:29.962Z,100.00
2022-10-31T07:04:02.143Z,100.00
2022-10-31T07:04:36.829Z,100.00
2022-10-31T07:05:08.740Z,100.00
2022-10-31T07:05:41.158Z,100.00
2022-10-31T07:06:12.793Z,100.00
2022-10-31T07:06:48.233Z,100.00
2022-10-31T07:07:23.816Z,100.00
2022-10-31T07:07:59.992Z,100.00
2022-10-31T07:08:32.813Z,100.00
2022-10-31T07:09:04.493Z,100.00
2022-10-31T07:09:36.229Z,100.00
2022-10-31T07:10:09.701Z,100.00
2022-10-31T07:11:01.568Z,100.00
2022-10-31T07:11:34.662Z,100.00
2022-10-31T07:12:06.565Z,100.00
2022-10-31T07:12:42.383Z,100.00
2022-10-31T07:13:15.193Z,100.00
2022-10-31T07:13:54.299Z,100.00
2022-10-31T07:14:26.281Z,100.00
2022-10-31T07:14:58.307Z,100.00
2022-10-31T07:15:31.327Z,100.00
2022-10-31T07:16:07.674Z,100.00
2022-10-31T07:16:40.796Z,100.00
2022-10-31T07:17:12.603Z,100.00
2022-10-31T07:17:46.721Z,100.00
2022-10-31T07:18:18.797Z,100.00
2022-10-31T07:18:51.115Z,100.00
2022-10-31T07:19:22.801Z,100.00
2022-10-31T07:19:54.439Z,100.00
2022-10-31T07:20:26.132Z,100.00
2022-10-31T07:20:57.679Z,100.00
2022-10-31T07:21:29.221Z,100.00
2022-10-31T07:22:01.122Z,100.00
2022-10-31T07:22:35.841Z,100.00
2022-10-31T07:23:11.659Z,100.00
2022-10-31T07:23:43.230Z,100.00
2022-10-31T07:24:33.084Z,100.00
2022-10-31T07:25:43.602Z,100.00
2022-10-31T07:26:20.925Z,100.00
2022-10-31T07:26:53.680Z,100.00
2022-10-31T07:27:25.312Z,100.00
2022-10-31T07:27:57.162Z,100.00
2022-10-31T07:28:29.033Z,100.00
2022-10-31T07:29:00.563Z,100.00
2022-10-31T07:29:33.428Z,100.00
2022-10-31T07:30:06.222Z,100.00
2022-10-31T07:30:39.074Z,100.00
2022-10-31T07:31:10.638Z,100.00
2022-10-31T07:31:45.118Z,100.00
2022-10-31T07:32:22.724Z,100.00
2022-10-31T07:33:01.152Z,100.00
2022-10-31T07:33:52.632Z,100.00
2022-10-31T07:34:47.656Z,100.00
2022-10-31T07:35:43.138Z,100.00
2022-10-31T07:36:17.883Z,100.00
2022-10-31T07:36:52.976Z,100.00
2022-10-31T07:37:30.998Z,100.00
2022-10-31T07:38:11.487Z,100.00
2022-10-31T07:38:43.253Z,100.00
2022-10-31T07:39:14.997Z,100.00
2022-10-31T07:39:46.793Z,100.00
2022-10-31T07:40:21.837Z,100.00
2022-10-31T07:40:53.908Z,100.00
2022-10-31T07:41:25.545Z,100.00
2022-10-31T07:41:59.442Z,100.00
2022-10-31T07:42:36.815Z,100.00
2022-10-31T07:43:13.985Z,99.23
2022-10-31T07:44:08.740Z,95.43
2022-10-31T07:44:58.829Z,94.33
2022-10-31T07:46:05.375Z,91.58
2022-10-31T07:46:54.974Z,89.61
2022-10-31T07:47:47.361Z,87.23
2022-10-31T07:48:37.279Z,84.77
2022-10-31T07:49:34.811Z,82.86
2022-10-31T07:50:35.709Z,81.19
2022-10-31T07:51:10.123Z,80.36
2022-10-31T07:52:13.894Z,79.57
2022-10-31T07:53:08.291Z,77.55
2022-10-31T07:53:48.708Z,76.35
2022-10-31T07:54:28.543Z,75.66
2022-10-31T07:55:00.045Z,75.74
2022-10-31T07:55:32.356Z,74.81
2022-10-31T07:56:04.004Z,74.57
2022-10-31T07:56:35.564Z,74.62
2022-10-31T07:57:07.093Z,74.42
2022-10-31T07:57:38.808Z,74.78
2022-10-31T07:58:14.458Z,75.70
2022-10-31T07:58:46.017Z,76.58
2022-10-31T07:59:18.174Z,78.08
2022-10-31T07:59:49.696Z,78.19
2022-10-31T08:00:23.065Z,77.69
2022-10-31T08:00:55.405Z,77.71
2022-10-31T08:01:36.834Z,76.22
2022-10-31T08:02:35.186Z,76.21
2022-10-31T08:03:44.639Z,76.22
2022-10-31T08:04:34.840Z,74.61
2022-10-31T08:05:24.820Z,75.35
2022-10-31T08:06:28.792Z,75.96